sensor_id;sensor_type;location;lat;lon;timestamp;temperature;humidity
42333;DHT22;27984;51.476;5.702;2023-04-29T00:01:46;10.80;99.90
42333;DHT22;27984;51.476;5.702;2023-04-29T00:04:13;10.80;99.90
42333;DHT22;27984;51.476;5.702;2023-04-29T00:06:38;10.80;99.90
42333;DHT22;27984;51.476;5.702;2023-04-29T00:09:04;10.80;99.90
42333;DHT22;27984;51.476;5.702;2023-04-29T00:11:30;10.70;99.90
42333;DHT22;27984;51.476;5.702;2023-04-29T00:13:55;10.70;99.90
42333;DHT22;27984;51.476;5.702;2023-04-29T00:16:21;10.70;99.90
42333;DHT22;27984;51.476;5.702;2023-04-29T00:18:47;10.70;99.90
42333;DHT22;27984;51.476;5.702;2023-04-29T00:21:12;10.70;99.90
42333;DHT22;27984;51.476;5.702;2023-04-29T00:23:38;10.70;99.90
42333;DHT22;27984;51.476;5.702;2023-04-29T00:26:03;10.70;99.90
42333;DHT22;27984;51.476;5.702;2023-04-29T00:28:29;10.70;99.90
42333;DHT22;27984;51.476;5.702;2023-04-29T00:30:55;10.70;99.90
42333;DHT22;27984;51.476;5.702;2023-04-29T00:33:20;10.70;99.90
42333;DHT22;27984;51.476;5.702;2023-04-29T00:35:46;10.60;99.90
42333;DHT22;27984;51.476;5.702;2023-04-29T00:38:11;10.50;99.90
42333;DHT22;27984;51.476;5.702;2023-04-29T00:40:37;10.50;99.90
42333;DHT22;27984;51.476;5.702;2023-04-29T00:43:02;10.40;99.90
42333;DHT22;27984;51.476;5.702;2023-04-29T00:45:28;10.40;99.90
42333;DHT22;27984;51.476;5.702;2023-04-29T00:47:53;10.40;99.90
42333;DHT22;27984;51.476;5.702;2023-04-29T00:50:20;10.50;99.90
42333;DHT22;27984;51.476;5.702;2023-04-29T00:52:46;10.40;99.90
42333;DHT22;27984;51.476;5.702;2023-04-29T00:55:12;10.30;99.90
42333;DHT22;27984;51.476;5.702;2023-04-29T00:57:38;10.20;99.90
42333;DHT22;27984;51.476;5.702;2023-04-29T01:00:04;10.20;99.90
42333;DHT22;27984;51.476;5.702;2023-04-29T01:02:30;10.10;99.90
42333;DHT22;27984;51.476;5.702;2023-04-29T01:04:56;10.20;99.90
42333;DHT22;27984;51.476;5.702;2023-04-29T01:07:40;10.10;99.90
42333;DHT22;27984;51.476;5.702;2023-04-29T01:15:33;10.10;99.90
42333;DHT22;27984;51.476;5.702;2023-04-29T01:18:11;10.20;99.90
42333;DHT22;27984;51.476;5.702;2023-04-29T01:20:38;10.20;99.90
42333;DHT22;27984;51.476;5.702;2023-04-29T01:23:05;10.10;99.90
42333;DHT22;27984;51.476;5.702;2023-04-29T01:25:30;10.10;99.90
42333;DHT22;27984;51.476;5.702;2023-04-29T01:30:51;10.00;99.90
42333;DHT22;27984;51.476;5.702;2023-04-29T01:38:27;10.00;99.90
42333;DHT22;27984;51.476;5.702;2023-04-29T01:40:59;10.00;99.90
42333;DHT22;27984;51.476;5.702;2023-04-29T01:43:29;10.00;99.90
42333;DHT22;27984;51.476;5.702;2023-04-29T01:45:57;10.00;99.90
42333;DHT22;27984;51.476;5.702;2023-04-29T01:48:24;10.00;99.90
42333;DHT22;27984;51.476;5.702;2023-04-29T01:50:49;10.10;99.90
42333;DHT22;27984;51.476;5.702;2023-04-29T01:53:15;10.00;99.90
42333;DHT22;27984;51.476;5.702;2023-04-29T01:55:40;9.90;99.90
42333;DHT22;27984;51.476;5.702;2023-04-29T01:58:09;9.90;99.90
42333;DHT22;27984;51.476;5.702;2023-04-29T02:00:34;9.90;99.90
42333;DHT22;27984;51.476;5.702;2023-04-29T02:03:00;9.90;99.90
42333;DHT22;27984;51.476;5.702;2023-04-29T02:05:26;9.90;99.90
42333;DHT22;27984;51.476;5.702;2023-04-29T02:07:56;9.80;99.90
42333;DHT22;27984;51.476;5.702;2023-04-29T02:10:22;9.80;99.90
42333;DHT22;27984;51.476;5.702;2023-04-29T02:12:47;9.80;99.90
42333;DHT22;27984;51.476;5.702;2023-04-29T02:15:13;9.80;99.90
42333;DHT22;27984;51.476;5.702;2023-04-29T02:17:38;9.90;99.90
42333;DHT22;27984;51.476;5.702;2023-04-29T02:20:04;9.80;99.90
42333;DHT22;27984;51.476;5.702;2023-04-29T02:22:30;9.80;99.90
42333;DHT22;27984;51.476;5.702;2023-04-29T02:24:55;9.90;99.90
42333;DHT22;27984;51.476;5.702;2023-04-29T02:27:22;9.80;99.90
42333;DHT22;27984;51.476;5.702;2023-04-29T02:29:48;9.80;99.90
42333;DHT22;27984;51.476;5.702;2023-04-29T02:32:13;9.80;99.90
42333;DHT22;27984;51.476;5.702;2023-04-29T02:34:40;9.80;99.90
42333;DHT22;27984;51.476;5.702;2023-04-29T02:37:05;9.90;99.90
42333;DHT22;27984;51.476;5.702;2023-04-29T02:39:31;9.80;99.90
42333;DHT22;27984;51.476;5.702;2023-04-29T02:41:56;9.80;99.90
42333;DHT22;27984;51.476;5.702;2023-04-29T02:44:22;9.80;99.90
42333;DHT22;27984;51.476;5.702;2023-04-29T02:46:48;9.80;99.90
42333;DHT22;27984;51.476;5.702;2023-04-29T02:49:13;9.90;99.90
42333;DHT22;27984;51.476;5.702;2023-04-29T02:51:39;9.80;99.90
42333;DHT22;27984;51.476;5.702;2023-04-29T02:54:05;9.90;99.90
42333;DHT22;27984;51.476;5.702;2023-04-29T02:56:31;9.80;99.90
42333;DHT22;27984;51.476;5.702;2023-04-29T02:58:57;9.80;99.90
42333;DHT22;27984;51.476;5.702;2023-04-29T03:01:22;9.80;99.90
42333;DHT22;27984;51.476;5.702;2023-04-29T03:03:48;9.80;99.90
42333;DHT22;27984;51.476;5.702;2023-04-29T03:06:14;9.80;99.90
42333;DHT22;27984;51.476;5.702;2023-04-29T03:08:40;9.70;99.90
42333;DHT22;27984;51.476;5.702;2023-04-29T03:11:06;9.70;99.90
42333;DHT22;27984;51.476;5.702;2023-04-29T03:13:31;9.70;99.90
42333;DHT22;27984;51.476;5.702;2023-04-29T03:15:57;9.70;99.90
42333;DHT22;27984;51.476;5.702;2023-04-29T03:18:24;9.70;99.90
42333;DHT22;27984;51.476;5.702;2023-04-29T03:20:50;9.80;99.90
42333;DHT22;27984;51.476;5.702;2023-04-29T03:23:15;9.80;99.90
42333;DHT22;27984;51.476;5.702;2023-04-29T03:25:41;9.80;99.90
42333;DHT22;27984;51.476;5.702;2023-04-29T03:28:07;9.80;99.90
42333;DHT22;27984;51.476;5.702;2023-04-29T03:30:32;9.80;99.90
42333;DHT22;27984;51.476;5.702;2023-04-29T03:32:58;9.80;99.90
42333;DHT22;27984;51.476;5.702;2023-04-29T03:35:24;9.80;99.90
42333;DHT22;27984;51.476;5.702;2023-04-29T03:37:49;9.80;99.90
42333;DHT22;27984;51.476;5.702;2023-04-29T03:40:15;9.80;99.90
42333;DHT22;27984;51.476;5.702;2023-04-29T03:42:41;9.80;99.90
42333;DHT22;27984;51.476;5.702;2023-04-29T03:45:07;9.80;99.90
42333;DHT22;27984;51.476;5.702;2023-04-29T03:47:32;9.80;99.90
42333;DHT22;27984;51.476;5.702;2023-04-29T03:49:58;9.70;99.90
42333;DHT22;27984;51.476;5.702;2023-04-29T03:52:23;9.70;99.90
42333;DHT22;27984;51.476;5.702;2023-04-29T03:54:50;9.60;99.90
42333;DHT22;27984;51.476;5.702;2023-04-29T03:57:15;9.70;99.90
42333;DHT22;27984;51.476;5.702;2023-04-29T03:59:41;9.60;99.90
42333;DHT22;27984;51.476;5.702;2023-04-29T04:02:06;9.60;99.90
42333;DHT22;27984;51.476;5.702;2023-04-29T04:04:32;9.60;99.90
42333;DHT22;27984;51.476;5.702;2023-04-29T04:06:58;9.60;99.90
42333;DHT22;27984;51.476;5.702;2023-04-29T04:09:23;9.60;99.90
42333;DHT22;27984;51.476;5.702;2023-04-29T04:11:49;9.60;99.90
42333;DHT22;27984;51.476;5.702;2023-04-29T04:14:14;9.60;99.90
42333;DHT22;27984;51.476;5.702;2023-04-29T04:16:40;9.60;99.90
42333;DHT22;27984;51.476;5.702;2023-04-29T04:19:05;9.60;99.90
42333;DHT22;27984;51.476;5.702;2023-04-29T04:21:31;9.60;99.90
42333;DHT22;27984;51.476;5.702;2023-04-29T04:23:56;9.60;99.90
42333;DHT22;27984;51.476;5.702;2023-04-29T04:26:22;9.60;99.90
42333;DHT22;27984;51.476;5.702;2023-04-29T04:28:48;9.60;99.90
42333;DHT22;27984;51.476;5.702;2023-04-29T04:31:13;9.50;99.90
42333;DHT22;27984;51.476;5.702;2023-04-29T04:33:39;9.50;99.90
42333;DHT22;27984;51.476;5.702;2023-04-29T04:36:05;9.50;99.90
42333;DHT22;27984;51.476;5.702;2023-04-29T04:38:31;9.50;99.90
42333;DHT22;27984;51.476;5.702;2023-04-29T04:40:57;9.50;99.90
42333;DHT22;27984;51.476;5.702;2023-04-29T04:43:23;9.50;99.90
42333;DHT22;27984;51.476;5.702;2023-04-29T04:45:49;9.60;99.90
42333;DHT22;27984;51.476;5.702;2023-04-29T04:48:14;9.60;99.90
42333;DHT22;27984;51.476;5.702;2023-04-29T04:50:40;9.50;99.90
42333;DHT22;27984;51.476;5.702;2023-04-29T04:53:05;9.60;99.90
42333;DHT22;27984;51.476;5.702;2023-04-29T04:55:31;9.60;99.90
42333;DHT22;27984;51.476;5.702;2023-04-29T04:57:58;9.60;99.90
42333;DHT22;27984;51.476;5.702;2023-04-29T05:00:23;9.60;99.90
42333;DHT22;27984;51.476;5.702;2023-04-29T05:02:49;9.60;99.90
42333;DHT22;27984;51.476;5.702;2023-04-29T05:05:14;9.60;99.90
42333;DHT22;27984;51.476;5.702;2023-04-29T05:07:40;9.70;99.90
42333;DHT22;27984;51.476;5.702;2023-04-29T05:10:06;9.60;99.90
42333;DHT22;27984;51.476;5.702;2023-04-29T05:12:32;9.60;99.90
42333;DHT22;27984;51.476;5.702;2023-04-29T05:14:59;9.60;99.90
42333;DHT22;27984;51.476;5.702;2023-04-29T05:17:25;9.60;99.90
42333;DHT22;27984;51.476;5.702;2023-04-29T05:19:51;9.60;99.90
42333;DHT22;27984;51.476;5.702;2023-04-29T05:22:16;9.60;99.90
42333;DHT22;27984;51.476;5.702;2023-04-29T05:24:42;9.60;99.90
42333;DHT22;27984;51.476;5.702;2023-04-29T05:27:07;9.70;99.90
42333;DHT22;27984;51.476;5.702;2023-04-29T05:29:33;9.70;99.90
42333;DHT22;27984;51.476;5.702;2023-04-29T05:31:58;9.70;99.90
42333;DHT22;27984;51.476;5.702;2023-04-29T05:34:24;9.70;99.90
42333;DHT22;27984;51.476;5.702;2023-04-29T05:36:50;9.70;99.90
42333;DHT22;27984;51.476;5.702;2023-04-29T05:39:15;9.70;99.90
42333;DHT22;27984;51.476;5.702;2023-04-29T05:41:42;9.70;99.90
42333;DHT22;27984;51.476;5.702;2023-04-29T05:44:07;9.70;99.90
42333;DHT22;27984;51.476;5.702;2023-04-29T05:46:33;9.70;99.90
42333;DHT22;27984;51.476;5.702;2023-04-29T05:48:58;9.70;99.90
42333;DHT22;27984;51.476;5.702;2023-04-29T05:51:24;9.80;99.90
42333;DHT22;27984;51.476;5.702;2023-04-29T05:53:50;9.70;99.90
42333;DHT22;27984;51.476;5.702;2023-04-29T05:56:16;9.70;99.90
42333;DHT22;27984;51.476;5.702;2023-04-29T05:58:42;9.80;99.90
42333;DHT22;27984;51.476;5.702;2023-04-29T06:01:07;9.70;99.90
42333;DHT22;27984;51.476;5.702;2023-04-29T06:03:33;9.70;99.90
42333;DHT22;27984;51.476;5.702;2023-04-29T06:05:59;9.80;99.90
42333;DHT22;27984;51.476;5.702;2023-04-29T06:08:24;9.70;99.90
42333;DHT22;27984;51.476;5.702;2023-04-29T06:10:51;9.70;99.90
42333;DHT22;27984;51.476;5.702;2023-04-29T06:13:16;9.80;99.90
42333;DHT22;27984;51.476;5.702;2023-04-29T06:15:42;9.80;99.90
42333;DHT22;27984;51.476;5.702;2023-04-29T06:18:08;9.90;99.90
42333;DHT22;27984;51.476;5.702;2023-04-29T06:20:33;9.80;99.90
42333;DHT22;27984;51.476;5.702;2023-04-29T06:22:59;9.90;99.90
42333;DHT22;27984;51.476;5.702;2023-04-29T06:25:24;9.90;99.90
42333;DHT22;27984;51.476;5.702;2023-04-29T06:27:50;9.90;99.90
42333;DHT22;27984;51.476;5.702;2023-04-29T06:30:15;9.90;99.90
42333;DHT22;27984;51.476;5.702;2023-04-29T06:32:41;9.90;99.90
42333;DHT22;27984;51.476;5.702;2023-04-29T06:35:07;9.90;99.90
42333;DHT22;27984;51.476;5.702;2023-04-29T06:37:32;9.90;99.90
42333;DHT22;27984;51.476;5.702;2023-04-29T06:39:58;9.90;99.90
42333;DHT22;27984;51.476;5.702;2023-04-29T06:42:24;10.00;99.90
42333;DHT22;27984;51.476;5.702;2023-04-29T06:44:49;9.90;99.90
42333;DHT22;27984;51.476;5.702;2023-04-29T06:47:15;9.90;99.90
42333;DHT22;27984;51.476;5.702;2023-04-29T06:49:40;10.00;99.90
42333;DHT22;27984;51.476;5.702;2023-04-29T06:52:08;10.00;99.90
42333;DHT22;27984;51.476;5.702;2023-04-29T06:54:33;10.00;99.90
42333;DHT22;27984;51.476;5.702;2023-04-29T06:56:59;9.90;99.90
42333;DHT22;27984;51.476;5.702;2023-04-29T06:59:25;9.90;99.90
42333;DHT22;27984;51.476;5.702;2023-04-29T07:01:50;10.00;99.90
42333;DHT22;27984;51.476;5.702;2023-04-29T07:04:16;10.20;99.90
42333;DHT22;27984;51.476;5.702;2023-04-29T07:06:42;10.20;99.90
42333;DHT22;27984;51.476;5.702;2023-04-29T07:09:11;10.40;99.90
42333;DHT22;27984;51.476;5.702;2023-04-29T07:11:38;10.50;99.90
42333;DHT22;27984;51.476;5.702;2023-04-29T07:14:03;10.60;99.90
42333;DHT22;27984;51.476;5.702;2023-04-29T07:16:29;10.70;99.90
42333;DHT22;27984;51.476;5.702;2023-04-29T07:18:55;10.80;99.90
42333;DHT22;27984;51.476;5.702;2023-04-29T07:21:20;10.70;99.90
42333;DHT22;27984;51.476;5.702;2023-04-29T07:23:46;10.70;99.90
42333;DHT22;27984;51.476;5.702;2023-04-29T07:26:13;10.70;99.90
42333;DHT22;27984;51.476;5.702;2023-04-29T07:28:40;10.80;99.90
42333;DHT22;27984;51.476;5.702;2023-04-29T07:31:06;10.80;99.90
42333;DHT22;27984;51.476;5.702;2023-04-29T07:33:33;10.90;99.90
42333;DHT22;27984;51.476;5.702;2023-04-29T07:35:58;11.00;99.90
42333;DHT22;27984;51.476;5.702;2023-04-29T07:38:24;11.20;99.90
42333;DHT22;27984;51.476;5.702;2023-04-29T07:40:50;11.20;99.90
42333;DHT22;27984;51.476;5.702;2023-04-29T07:43:16;11.30;99.90
42333;DHT22;27984;51.476;5.702;2023-04-29T07:45:42;11.40;99.90
42333;DHT22;27984;51.476;5.702;2023-04-29T07:48:07;11.60;99.90
42333;DHT22;27984;51.476;5.702;2023-04-29T07:50:36;11.60;99.90
42333;DHT22;27984;51.476;5.702;2023-04-29T07:53:02;11.90;99.90
42333;DHT22;27984;51.476;5.702;2023-04-29T07:55:27;11.70;99.90
42333;DHT22;27984;51.476;5.702;2023-04-29T07:57:56;12.00;99.90
42333;DHT22;27984;51.476;5.702;2023-04-29T08:00:22;12.00;99.90
42333;DHT22;27984;51.476;5.702;2023-04-29T08:02:55;12.20;99.90
42333;DHT22;27984;51.476;5.702;2023-04-29T08:05:21;12.20;99.90
42333;DHT22;27984;51.476;5.702;2023-04-29T08:07:50;12.20;99.90
42333;DHT22;27984;51.476;5.702;2023-04-29T08:10:17;12.20;99.90
42333;DHT22;27984;51.476;5.702;2023-04-29T08:12:47;12.20;99.90
42333;DHT22;27984;51.476;5.702;2023-04-29T08:15:13;12.10;99.90
42333;DHT22;27984;51.476;5.702;2023-04-29T08:17:39;12.10;99.90
42333;DHT22;27984;51.476;5.702;2023-04-29T08:20:05;12.10;99.90
42333;DHT22;27984;51.476;5.702;2023-04-29T08:22:32;12.10;99.90
42333;DHT22;27984;51.476;5.702;2023-04-29T08:24:58;12.10;99.90
42333;DHT22;27984;51.476;5.702;2023-04-29T08:27:23;12.10;99.90
42333;DHT22;27984;51.476;5.702;2023-04-29T08:29:49;12.20;99.90
42333;DHT22;27984;51.476;5.702;2023-04-29T08:32:14;12.50;99.90
42333;DHT22;27984;51.476;5.702;2023-04-29T08:34:40;12.50;99.90
42333;DHT22;27984;51.476;5.702;2023-04-29T08:37:06;12.50;99.90
42333;DHT22;27984;51.476;5.702;2023-04-29T08:39:31;12.60;99.90
42333;DHT22;27984;51.476;5.702;2023-04-29T08:41:57;12.80;99.90
42333;DHT22;27984;51.476;5.702;2023-04-29T08:44:27;12.90;99.90
42333;DHT22;27984;51.476;5.702;2023-04-29T08:46:54;13.00;99.90
42333;DHT22;27984;51.476;5.702;2023-04-29T08:49:20;13.20;99.90
42333;DHT22;27984;51.476;5.702;2023-04-29T08:51:48;13.10;99.90
42333;DHT22;27984;51.476;5.702;2023-04-29T08:54:16;13.10;99.90
42333;DHT22;27984;51.476;5.702;2023-04-29T08:56:44;13.10;99.90
42333;DHT22;27984;51.476;5.702;2023-04-29T08:59:10;13.20;99.90
42333;DHT22;27984;51.476;5.702;2023-04-29T09:01:39;13.30;99.90
42333;DHT22;27984;51.476;5.702;2023-04-29T09:04:08;13.50;99.90
42333;DHT22;27984;51.476;5.702;2023-04-29T09:06:34;13.90;99.90
42333;DHT22;27984;51.476;5.702;2023-04-29T09:09:00;14.20;99.90
42333;DHT22;27984;51.476;5.702;2023-04-29T09:11:27;14.20;99.90
42333;DHT22;27984;51.476;5.702;2023-04-29T09:14:00;14.30;99.90
42333;DHT22;27984;51.476;5.702;2023-04-29T09:16:27;14.30;99.90
42333;DHT22;27984;51.476;5.702;2023-04-29T09:18:53;14.20;99.90
42333;DHT22;27984;51.476;5.702;2023-04-29T09:21:27;14.30;99.90
42333;DHT22;27984;51.476;5.702;2023-04-29T09:23:58;14.20;99.90
42333;DHT22;27984;51.476;5.702;2023-04-29T09:26:25;14.20;99.90
42333;DHT22;27984;51.476;5.702;2023-04-29T09:29:11;13.80;99.90
42333;DHT22;27984;51.476;5.702;2023-04-29T09:31:38;13.80;99.90
42333;DHT22;27984;51.476;5.702;2023-04-29T09:34:04;13.90;99.90
42333;DHT22;27984;51.476;5.702;2023-04-29T09:36:49;14.00;99.90
42333;DHT22;27984;51.476;5.702;2023-04-29T09:39:22;14.10;99.90
42333;DHT22;27984;51.476;5.702;2023-04-29T09:44:17;14.20;99.90
42333;DHT22;27984;51.476;5.702;2023-04-29T09:46:43;14.30;99.90
42333;DHT22;27984;51.476;5.702;2023-04-29T09:49:23;14.40;99.90
42333;DHT22;27984;51.476;5.702;2023-04-29T09:52:09;14.90;99.90
42333;DHT22;27984;51.476;5.702;2023-04-29T09:54:36;15.70;99.90
42333;DHT22;27984;51.476;5.702;2023-04-29T09:57:04;16.00;99.90
42333;DHT22;27984;51.476;5.702;2023-04-29T09:59:34;16.00;99.90
42333;DHT22;27984;51.476;5.702;2023-04-29T10:02:01;15.90;99.90
42333;DHT22;27984;51.476;5.702;2023-04-29T10:04:28;15.50;99.90
42333;DHT22;27984;51.476;5.702;2023-04-29T10:06:56;15.50;99.90
42333;DHT22;27984;51.476;5.702;2023-04-29T10:09:24;15.40;99.90
42333;DHT22;27984;51.476;5.702;2023-04-29T10:11:51;15.20;99.90
42333;DHT22;27984;51.476;5.702;2023-04-29T10:14:22;15.30;99.90
42333;DHT22;27984;51.476;5.702;2023-04-29T10:17:01;15.40;99.90
42333;DHT22;27984;51.476;5.702;2023-04-29T10:19:38;15.30;99.90
42333;DHT22;27984;51.476;5.702;2023-04-29T10:22:11;15.40;99.90
42333;DHT22;27984;51.476;5.702;2023-04-29T10:24:41;15.70;99.90
42333;DHT22;27984;51.476;5.702;2023-04-29T10:27:09;16.40;99.90
42333;DHT22;27984;51.476;5.702;2023-04-29T10:29:37;17.10;99.90
42333;DHT22;27984;51.476;5.702;2023-04-29T10:32:06;17.40;99.90
42333;DHT22;27984;51.476;5.702;2023-04-29T10:34:35;17.80;99.90
42333;DHT22;27984;51.476;5.702;2023-04-29T10:37:01;17.50;99.90
42333;DHT22;27984;51.476;5.702;2023-04-29T10:39:46;17.50;99.90
42333;DHT22;27984;51.476;5.702;2023-04-29T10:45:19;16.90;99.90
42333;DHT22;27984;51.476;5.702;2023-04-29T10:53:12;16.30;99.90
42333;DHT22;27984;51.476;5.702;2023-04-29T10:55:39;16.30;99.90
42333;DHT22;27984;51.476;5.702;2023-04-29T10:58:05;16.20;99.90
42333;DHT22;27984;51.476;5.702;2023-04-29T11:00:50;16.00;99.90
42333;DHT22;27984;51.476;5.702;2023-04-29T11:04:11;16.00;99.90
42333;DHT22;27984;51.476;5.702;2023-04-29T11:11:56;16.00;99.90
42333;DHT22;27984;51.476;5.702;2023-04-29T11:14:35;15.90;99.90
42333;DHT22;27984;51.476;5.702;2023-04-29T11:17:09;16.00;99.90
42333;DHT22;27984;51.476;5.702;2023-04-29T11:19:40;16.10;99.90
42333;DHT22;27984;51.476;5.702;2023-04-29T11:22:11;16.10;99.90
42333;DHT22;27984;51.476;5.702;2023-04-29T11:24:53;16.10;99.90
42333;DHT22;27984;51.476;5.702;2023-04-29T11:27:21;15.90;99.90
42333;DHT22;27984;51.476;5.702;2023-04-29T11:29:50;16.10;99.90
42333;DHT22;27984;51.476;5.702;2023-04-29T11:32:19;16.40;99.90
42333;DHT22;27984;51.476;5.702;2023-04-29T11:34:46;16.50;99.90
42333;DHT22;27984;51.476;5.702;2023-04-29T11:37:11;16.30;99.90
42333;DHT22;27984;51.476;5.702;2023-04-29T11:39:37;15.90;99.90
42333;DHT22;27984;51.476;5.702;2023-04-29T11:42:06;15.80;99.90
42333;DHT22;27984;51.476;5.702;2023-04-29T11:44:35;15.60;99.90
42333;DHT22;27984;51.476;5.702;2023-04-29T11:47:03;15.30;99.90
42333;DHT22;27984;51.476;5.702;2023-04-29T11:49:33;15.20;99.90
42333;DHT22;27984;51.476;5.702;2023-04-29T11:51:58;14.90;99.90
42333;DHT22;27984;51.476;5.702;2023-04-29T11:54:28;15.00;99.90
42333;DHT22;27984;51.476;5.702;2023-04-29T11:56:54;15.10;99.90
42333;DHT22;27984;51.476;5.702;2023-04-29T11:59:20;15.30;99.90
42333;DHT22;27984;51.476;5.702;2023-04-29T12:01:49;15.50;99.90
42333;DHT22;27984;51.476;5.702;2023-04-29T12:04:16;15.50;99.90
42333;DHT22;27984;51.476;5.702;2023-04-29T12:06:41;15.50;99.90
42333;DHT22;27984;51.476;5.702;2023-04-29T12:09:07;15.60;99.90
42333;DHT22;27984;51.476;5.702;2023-04-29T12:11:33;15.60;99.90
42333;DHT22;27984;51.476;5.702;2023-04-29T12:13:59;15.60;99.90
42333;DHT22;27984;51.476;5.702;2023-04-29T12:16:27;15.50;99.90
42333;DHT22;27984;51.476;5.702;2023-04-29T12:18:54;15.50;99.90
42333;DHT22;27984;51.476;5.702;2023-04-29T12:21:21;15.70;99.90
42333;DHT22;27984;51.476;5.702;2023-04-29T12:23:47;15.70;99.90
42333;DHT22;27984;51.476;5.702;2023-04-29T12:26:13;16.20;99.90
42333;DHT22;27984;51.476;5.702;2023-04-29T12:28:39;16.40;99.90
42333;DHT22;27984;51.476;5.702;2023-04-29T12:31:08;16.40;99.90
42333;DHT22;27984;51.476;5.702;2023-04-29T12:33:35;16.30;99.90
42333;DHT22;27984;51.476;5.702;2023-04-29T12:36:01;16.00;99.90
42333;DHT22;27984;51.476;5.702;2023-04-29T12:38:30;16.10;99.90
42333;DHT22;27984;51.476;5.702;2023-04-29T12:40:59;15.80;99.90
42333;DHT22;27984;51.476;5.702;2023-04-29T12:43:31;15.80;99.90
42333;DHT22;27984;51.476;5.702;2023-04-29T12:48:31;15.70;99.90
42333;DHT22;27984;51.476;5.702;2023-04-29T12:50:57;15.70;99.90
42333;DHT22;27984;51.476;5.702;2023-04-29T12:53:24;15.90;99.90
42333;DHT22;27984;51.476;5.702;2023-04-29T12:55:50;16.00;99.90
42333;DHT22;27984;51.476;5.702;2023-04-29T12:58:16;16.00;99.90
42333;DHT22;27984;51.476;5.702;2023-04-29T13:00:42;15.90;99.90
42333;DHT22;27984;51.476;5.702;2023-04-29T13:03:07;16.10;99.90
42333;DHT22;27984;51.476;5.702;2023-04-29T13:05:33;16.30;99.90
42333;DHT22;27984;51.476;5.702;2023-04-29T13:07:59;16.20;99.90
42333;DHT22;27984;51.476;5.702;2023-04-29T13:10:25;16.30;99.90
42333;DHT22;27984;51.476;5.702;2023-04-29T13:12:53;16.30;99.90
42333;DHT22;27984;51.476;5.702;2023-04-29T13:15:18;16.40;99.90
42333;DHT22;27984;51.476;5.702;2023-04-29T13:17:44;16.50;99.90
42333;DHT22;27984;51.476;5.702;2023-04-29T13:20:10;16.50;99.90
42333;DHT22;27984;51.476;5.702;2023-04-29T13:22:36;16.70;99.90
42333;DHT22;27984;51.476;5.702;2023-04-29T13:25:02;16.80;99.90
42333;DHT22;27984;51.476;5.702;2023-04-29T13:27:29;17.20;99.90
42333;DHT22;27984;51.476;5.702;2023-04-29T13:29:55;17.20;99.90
42333;DHT22;27984;51.476;5.702;2023-04-29T13:32:21;17.40;99.90
42333;DHT22;27984;51.476;5.702;2023-04-29T13:34:48;17.60;99.90
42333;DHT22;27984;51.476;5.702;2023-04-29T13:37:14;17.90;99.90
42333;DHT22;27984;51.476;5.702;2023-04-29T13:39:41;17.80;99.90
42333;DHT22;27984;51.476;5.702;2023-04-29T13:42:07;17.80;99.90
42333;DHT22;27984;51.476;5.702;2023-04-29T13:44:33;17.70;99.90
42333;DHT22;27984;51.476;5.702;2023-04-29T13:46:59;17.70;99.90
42333;DHT22;27984;51.476;5.702;2023-04-29T13:49:25;17.70;99.90
42333;DHT22;27984;51.476;5.702;2023-04-29T13:51:51;17.60;99.90
42333;DHT22;27984;51.476;5.702;2023-04-29T13:54:17;17.60;99.70
42333;DHT22;27984;51.476;5.702;2023-04-29T13:56:45;17.40;99.70
42333;DHT22;27984;51.476;5.702;2023-04-29T13:59:11;17.40;99.90
42333;DHT22;27984;51.476;5.702;2023-04-29T14:01:36;17.50;99.90
42333;DHT22;27984;51.476;5.702;2023-04-29T14:04:02;17.60;99.90
42333;DHT22;27984;51.476;5.702;2023-04-29T14:06:28;17.60;99.90
42333;DHT22;27984;51.476;5.702;2023-04-29T14:08:56;17.60;99.90
42333;DHT22;27984;51.476;5.702;2023-04-29T14:11:22;17.80;99.70
42333;DHT22;27984;51.476;5.702;2023-04-29T14:13:48;17.90;99.90
42333;DHT22;27984;51.476;5.702;2023-04-29T14:16:13;18.00;99.90
42333;DHT22;27984;51.476;5.702;2023-04-29T14:18:39;18.20;99.90
42333;DHT22;27984;51.476;5.702;2023-04-29T14:21:05;18.50;99.10
42333;DHT22;27984;51.476;5.702;2023-04-29T14:23:30;18.50;99.60
42333;DHT22;27984;51.476;5.702;2023-04-29T14:25:56;18.70;98.40
42333;DHT22;27984;51.476;5.702;2023-04-29T14:28:21;18.20;97.90
42333;DHT22;27984;51.476;5.702;2023-04-29T14:30:47;18.00;98.80
42333;DHT22;27984;51.476;5.702;2023-04-29T14:33:12;18.10;99.10
42333;DHT22;27984;51.476;5.702;2023-04-29T14:35:38;18.30;99.00
42333;DHT22;27984;51.476;5.702;2023-04-29T14:38:03;18.10;99.50
42333;DHT22;27984;51.476;5.702;2023-04-29T14:40:29;18.10;99.10
42333;DHT22;27984;51.476;5.702;2023-04-29T14:42:54;18.10;98.70
42333;DHT22;27984;51.476;5.702;2023-04-29T14:45:20;18.10;98.10
42333;DHT22;27984;51.476;5.702;2023-04-29T14:47:45;17.90;99.00
42333;DHT22;27984;51.476;5.702;2023-04-29T14:50:11;17.70;98.40
42333;DHT22;27984;51.476;5.702;2023-04-29T14:52:37;17.50;98.90
42333;DHT22;27984;51.476;5.702;2023-04-29T14:55:02;17.50;99.40
42333;DHT22;27984;51.476;5.702;2023-04-29T14:57:28;17.40;99.70
42333;DHT22;27984;51.476;5.702;2023-04-29T14:59:54;17.60;98.50
42333;DHT22;27984;51.476;5.702;2023-04-29T15:02:20;17.70;98.30
42333;DHT22;27984;51.476;5.702;2023-04-29T15:04:45;17.70;98.40
42333;DHT22;27984;51.476;5.702;2023-04-29T15:07:12;17.80;98.40
42333;DHT22;27984;51.476;5.702;2023-04-29T15:09:38;17.80;99.20
42333;DHT22;27984;51.476;5.702;2023-04-29T15:12:04;18.00;99.80
42333;DHT22;27984;51.476;5.702;2023-04-29T15:14:30;18.10;98.80
42333;DHT22;27984;51.476;5.702;2023-04-29T15:16:55;18.20;98.40
42333;DHT22;27984;51.476;5.702;2023-04-29T15:19:21;18.10;98.80
42333;DHT22;27984;51.476;5.702;2023-04-29T15:21:49;17.90;98.70
42333;DHT22;27984;51.476;5.702;2023-04-29T15:24:15;17.90;98.60
42333;DHT22;27984;51.476;5.702;2023-04-29T15:26:40;17.90;98.70
42333;DHT22;27984;51.476;5.702;2023-04-29T15:29:06;17.90;97.60
42333;DHT22;27984;51.476;5.702;2023-04-29T15:31:32;17.90;98.70
42333;DHT22;27984;51.476;5.702;2023-04-29T15:33:57;17.80;97.80
42333;DHT22;27984;51.476;5.702;2023-04-29T15:36:30;17.60;98.70
42333;DHT22;27984;51.476;5.702;2023-04-29T15:38:57;17.40;98.30
42333;DHT22;27984;51.476;5.702;2023-04-29T15:41:23;17.30;99.10
42333;DHT22;27984;51.476;5.702;2023-04-29T15:43:53;17.30;98.40
42333;DHT22;27984;51.476;5.702;2023-04-29T15:46:19;17.40;98.70
42333;DHT22;27984;51.476;5.702;2023-04-29T15:48:45;17.40;99.00
42333;DHT22;27984;51.476;5.702;2023-04-29T15:51:11;17.50;98.70
42333;DHT22;27984;51.476;5.702;2023-04-29T15:53:39;17.40;98.70
42333;DHT22;27984;51.476;5.702;2023-04-29T15:56:05;17.50;99.90
42333;DHT22;27984;51.476;5.702;2023-04-29T15:58:30;17.50;99.60
42333;DHT22;27984;51.476;5.702;2023-04-29T16:00:56;17.50;99.30
42333;DHT22;27984;51.476;5.702;2023-04-29T16:03:21;17.50;98.40
42333;DHT22;27984;51.476;5.702;2023-04-29T16:05:49;17.50;98.40